createdAt,value
2019-03-16T00:01:57.086Z,95.30
2019-03-16T00:04:21.166Z,94.80
2019-03-16T00:06:49.477Z,94.80
2019-03-16T00:09:17.849Z,94.60
2019-03-16T00:11:46.347Z,94.30
2019-03-16T00:14:14.649Z,93.70
2019-03-16T00:16:43.018Z,93.30
2019-03-16T00:19:11.346Z,93.40
2019-03-16T00:21:40.090Z,93.10
2019-03-16T00:24:08.457Z,92.40
2019-03-16T00:26:36.879Z,92.80
2019-03-16T00:29:05.196Z,92.90
2019-03-16T00:31:33.766Z,91.50
2019-03-16T00:34:01.947Z,92.30
2019-03-16T00:36:30.356Z,92.70
2019-03-16T00:38:58.649Z,92.30
2019-03-16T00:41:27.176Z,92.50
2019-03-16T00:43:55.461Z,92.40
2019-03-16T00:46:23.869Z,92.30
2019-03-16T00:48:52.195Z,92.10
2019-03-16T00:51:21.080Z,92.10
2019-03-16T00:53:49.282Z,92.10
2019-03-16T00:56:17.959Z,92.60
2019-03-16T00:58:46.300Z,92.30
2019-03-16T01:01:14.748Z,91.90
2019-03-16T01:03:43.119Z,92.30
2019-03-16T01:06:11.527Z,92.30
2019-03-16T01:08:40.173Z,92.50
2019-03-16T01:11:08.591Z,93.00
2019-03-16T01:13:37.299Z,92.20
2019-03-16T01:16:05.633Z,92.60
2019-03-16T01:18:34.407Z,92.20
2019-03-16T01:21:02.651Z,92.20
2019-03-16T01:23:31.111Z,92.80
2019-03-16T01:26:02.167Z,92.80
2019-03-16T01:28:30.629Z,92.70
2019-03-16T01:30:59.275Z,92.70
2019-03-16T01:33:28.056Z,92.90
2019-03-16T01:35:56.670Z,92.40
2019-03-16T01:38:26.152Z,92.80
2019-03-16T01:40:54.669Z,92.30
2019-03-16T01:43:23.036Z,92.20
2019-03-16T01:45:51.503Z,92.60
2019-03-16T01:48:19.919Z,91.40
2019-03-16T01:50:48.169Z,91.30
2019-03-16T01:53:17.241Z,91.10
2019-03-16T01:55:45.364Z,90.60
2019-03-16T01:58:13.958Z,90.00
2019-03-16T02:00:42.424Z,90.00
2019-03-16T02:03:10.714Z,88.70
2019-03-16T02:05:39.183Z,88.60
2019-03-16T02:08:07.551Z,87.10
2019-03-16T02:10:35.824Z,86.30
2019-03-16T02:13:04.343Z,86.50
2019-03-16T02:15:32.596Z,85.70
2019-03-16T02:18:02.486Z,86.00
2019-03-16T02:20:31.069Z,83.70
2019-03-16T02:22:59.590Z,83.70
2019-03-16T02:25:28.297Z,83.20
2019-03-16T02:27:56.660Z,81.80
2019-03-16T02:30:25.062Z,81.90
2019-03-16T02:33:11.037Z,81.50
2019-03-16T02:35:23.925Z,80.10
2019-03-16T02:37:52.646Z,78.90
2019-03-16T02:40:20.981Z,79.50
2019-03-16T02:42:49.460Z,78.70
2019-03-16T02:45:17.807Z,79.80
2019-03-16T02:47:46.158Z,80.00
2019-03-16T02:50:14.817Z,80.60
2019-03-16T02:52:43.239Z,80.40
2019-03-16T02:55:11.607Z,81.30
2019-03-16T02:57:40.295Z,80.90
2019-03-16T03:00:09.674Z,80.70
2019-03-16T03:02:38.015Z,81.20
2019-03-16T03:05:07.678Z,79.70
2019-03-16T03:07:35.975Z,78.50
2019-03-16T03:10:05.778Z,78.70
2019-03-16T03:12:34.369Z,78.20
2019-03-16T03:15:02.980Z,78.30
2019-03-16T03:17:31.328Z,78.50
2019-03-16T03:19:59.720Z,78.60
2019-03-16T03:22:28.176Z,78.30
2019-03-16T03:24:56.616Z,78.40
2019-03-16T03:27:25.107Z,78.60
2019-03-16T03:29:57.133Z,78.80
2019-03-16T03:32:24.030Z,79.00
2019-03-16T03:34:52.470Z,79.40
2019-03-16T03:37:20.788Z,79.00
2019-03-16T03:39:49.165Z,79.70
2019-03-16T03:42:17.630Z,78.90
2019-03-16T03:44:45.947Z,79.10
2019-03-16T03:47:14.604Z,79.50
2019-03-16T03:49:43.000Z,79.30
2019-03-16T03:52:11.685Z,79.00
2019-03-16T03:54:40.309Z,79.30
2019-03-16T03:57:09.405Z,79.30
2019-03-16T03:59:37.786Z,79.50
2019-03-16T04:02:06.604Z,79.30
2019-03-16T04:04:35.166Z,79.40
2019-03-16T04:07:03.599Z,79.70
2019-03-16T04:09:33.431Z,80.10
2019-03-16T04:12:01.899Z,80.20
2019-03-16T04:14:30.220Z,80.60
2019-03-16T04:16:58.576Z,80.40
2019-03-16T04:19:27.289Z,80.10
2019-03-16T04:21:55.556Z,80.00
2019-03-16T04:24:24.005Z,79.70
2019-03-16T04:26:52.401Z,79.40
2019-03-16T04:29:20.772Z,80.20
2019-03-16T04:31:49.156Z,80.50
2019-03-16T04:34:28.464Z,80.50
2019-03-16T04:36:47.931Z,80.50
2019-03-16T04:39:16.496Z,80.80
2019-03-16T04:41:44.799Z,80.60
2019-03-16T04:44:13.238Z,80.70
2019-03-16T04:46:41.619Z,81.30
2019-03-16T04:49:10.042Z,81.60
2019-03-16T04:51:38.346Z,82.00
2019-03-16T04:54:06.760Z,83.00
2019-03-16T04:56:35.082Z,84.00
2019-03-16T04:59:03.495Z,85.00
2019-03-16T05:01:31.825Z,86.00
2019-03-16T05:04:00.241Z,85.30
2019-03-16T05:06:28.658Z,85.30
2019-03-16T05:08:57.298Z,85.10
2019-03-16T05:11:25.734Z,85.50
2019-03-16T05:13:54.118Z,86.90
2019-03-16T05:16:22.787Z,87.90
2019-03-16T05:18:51.384Z,87.60
2019-03-16T05:21:20.254Z,87.90
2019-03-16T05:23:49.132Z,88.80
2019-03-16T05:26:17.794Z,89.50
2019-03-16T05:28:46.201Z,89.30
2019-03-16T05:31:14.863Z,90.40
2019-03-16T05:33:43.265Z,90.10
2019-03-16T05:36:11.953Z,90.00
2019-03-16T05:38:40.297Z,89.90
2019-03-16T05:41:08.713Z,90.10
2019-03-16T05:43:37.067Z,89.80
2019-03-16T05:46:05.779Z,89.60
2019-03-16T05:48:34.409Z,89.00
2019-03-16T05:51:02.809Z,89.20
2019-03-16T05:53:31.260Z,89.80
2019-03-16T05:55:59.917Z,90.00
2019-03-16T05:58:28.673Z,90.10
2019-03-16T06:00:57.442Z,90.20
2019-03-16T06:03:25.911Z,90.20
2019-03-16T06:05:54.786Z,90.10
2019-03-16T06:08:23.091Z,90.20
2019-03-16T06:10:51.626Z,90.20
2019-03-16T06:13:20.102Z,90.10
2019-03-16T06:15:48.579Z,90.20
2019-03-16T06:18:17.215Z,90.40
2019-03-16T06:20:45.840Z,90.60
2019-03-16T06:23:14.229Z,90.60
2019-03-16T06:25:42.607Z,90.70
2019-03-16T06:28:11.305Z,90.80
2019-03-16T06:30:42.438Z,90.90
2019-03-16T06:33:10.766Z,90.80
2019-03-16T06:35:39.254Z,90.80
2019-03-16T06:38:08.288Z,90.80
2019-03-16T06:40:36.901Z,90.90
2019-03-16T06:43:05.166Z,90.90
2019-03-16T06:45:33.975Z,90.70
2019-03-16T06:48:02.291Z,90.70
2019-03-16T06:50:31.073Z,90.80
2019-03-16T06:52:59.383Z,91.10
2019-03-16T06:55:27.845Z,91.70
2019-03-16T06:57:56.189Z,91.90
2019-03-16T07:00:24.821Z,92.20
2019-03-16T07:02:53.500Z,92.00
2019-03-16T07:05:23.649Z,92.20
2019-03-16T07:07:52.138Z,92.10
2019-03-16T07:10:20.643Z,92.30
2019-03-16T07:12:48.852Z,92.40
2019-03-16T07:15:17.603Z,92.60
2019-03-16T07:17:45.985Z,92.80
2019-03-16T07:20:14.400Z,92.40
2019-03-16T07:22:43.019Z,92.10
2019-03-16T07:25:11.408Z,92.30
2019-03-16T07:27:39.831Z,91.50
2019-03-16T07:30:08.104Z,91.50
2019-03-16T07:32:36.614Z,91.50
2019-03-16T07:35:05.783Z,91.20
2019-03-16T07:37:34.533Z,91.70
2019-03-16T07:40:03.260Z,91.30
2019-03-16T07:42:31.644Z,91.30
2019-03-16T07:45:07.978Z,91.00
2019-03-16T07:47:30.211Z,91.20
2019-03-16T07:49:58.912Z,90.90
2019-03-16T07:52:27.913Z,90.90
2019-03-16T07:54:56.265Z,90.80
2019-03-16T07:57:24.691Z,90.70
2019-03-16T07:59:53.041Z,90.70
2019-03-16T08:02:21.792Z,90.60
2019-03-16T08:04:50.728Z,90.60
2019-03-16T08:07:19.104Z,90.50
2019-03-16T08:09:47.760Z,90.50
2019-03-16T08:12:16.131Z,90.10
2019-03-16T08:14:44.921Z,90.30
2019-03-16T08:17:13.551Z,90.30
2019-03-16T08:19:42.183Z,90.30
2019-03-16T08:22:10.603Z,90.10
2019-03-16T08:24:38.945Z,90.20
2019-03-16T08:27:07.881Z,90.50
2019-03-16T08:29:36.378Z,90.60
2019-03-16T08:32:04.742Z,90.50
2019-03-16T08:34:33.045Z,90.70
2019-03-16T08:37:01.830Z,90.80
2019-03-16T08:39:30.209Z,90.80
2019-03-16T08:41:58.880Z,90.20
2019-03-16T08:44:27.201Z,90.40
2019-03-16T08:46:55.658Z,90.50
2019-03-16T08:49:23.974Z,90.50
2019-03-16T08:51:52.413Z,90.50
2019-03-16T08:54:20.775Z,90.60
2019-03-16T08:56:49.209Z,90.70
2019-03-16T08:59:17.500Z,90.50
2019-03-16T09:01:45.888Z,90.50
2019-03-16T09:04:14.287Z,90.50
2019-03-16T09:06:42.666Z,90.50
2019-03-16T09:09:11.044Z,90.80
2019-03-16T09:11:39.405Z,90.70
2019-03-16T09:14:08.279Z,90.80
2019-03-16T09:16:36.507Z,90.70
2019-03-16T09:19:04.840Z,90.30
2019-03-16T09:21:33.568Z,90.20
2019-03-16T09:24:02.254Z,90.40
2019-03-16T09:26:30.570Z,90.10
2019-03-16T09:29:00.199Z,89.90
2019-03-16T09:31:28.954Z,88.70
2019-03-16T09:33:57.619Z,88.70
2019-03-16T09:36:25.975Z,88.30
2019-03-16T09:38:54.304Z,87.90
2019-03-16T09:41:23.342Z,87.60
2019-03-16T09:43:52.037Z,87.10
2019-03-16T09:46:20.568Z,86.30
2019-03-16T09:48:49.162Z,86.90
2019-03-16T09:51:17.499Z,85.70
2019-03-16T09:53:45.958Z,85.30
2019-03-16T09:56:14.509Z,85.30
2019-03-16T09:58:42.973Z,85.50
2019-03-16T10:01:11.293Z,85.50
2019-03-16T10:03:39.722Z,86.10
2019-03-16T10:06:08.328Z,86.40
2019-03-16T10:08:36.750Z,85.80
2019-03-16T10:11:05.139Z,86.80
2019-03-16T10:13:33.857Z,86.80
2019-03-16T10:16:02.509Z,85.90
2019-03-16T10:18:31.162Z,85.70
2019-03-16T10:20:59.581Z,86.50
2019-03-16T10:23:28.614Z,86.70
2019-03-16T10:25:56.909Z,86.60
2019-03-16T10:28:25.783Z,86.80
2019-03-16T10:30:54.907Z,86.70
2019-03-16T10:33:23.639Z,86.80
2019-03-16T10:35:52.094Z,87.00
2019-03-16T10:38:20.407Z,87.00
2019-03-16T10:40:51.211Z,86.50
2019-03-16T10:43:19.604Z,86.20
2019-03-16T10:45:48.060Z,86.50
2019-03-16T10:48:16.390Z,86.50
2019-03-16T10:50:45.006Z,86.10
2019-03-16T10:53:13.401Z,85.40
2019-03-16T10:55:42.112Z,84.70
2019-03-16T10:58:10.504Z,84.80
2019-03-16T11:00:38.917Z,84.60
2019-03-16T11:03:07.643Z,84.40
2019-03-16T11:05:36.008Z,84.10
2019-03-16T11:08:04.607Z,84.40
2019-03-16T11:10:33.417Z,84.20
2019-03-16T11:13:01.720Z,83.60
2019-03-16T11:15:30.125Z,83.50
2019-03-16T11:17:58.451Z,82.80
2019-03-16T11:20:27.207Z,82.50
2019-03-16T11:22:55.500Z,82.90
2019-03-16T11:25:23.834Z,83.50
2019-03-16T11:27:52.318Z,83.40
2019-03-16T11:30:20.652Z,82.60
2019-03-16T11:32:49.337Z,81.40
2019-03-16T11:35:18.004Z,81.00
2019-03-16T11:37:46.674Z,80.50
2019-03-16T11:40:15.391Z,79.70
2019-03-16T11:42:44.128Z,79.60
2019-03-16T11:45:13.056Z,80.50
2019-03-16T11:47:41.423Z,79.20
2019-03-16T11:50:10.240Z,78.90
2019-03-16T11:52:38.520Z,79.10
2019-03-16T11:55:07.636Z,79.20
2019-03-16T11:57:36.293Z,78.90
2019-03-16T12:00:05.260Z,78.30
2019-03-16T12:02:33.517Z,77.20
2019-03-16T12:05:01.970Z,75.00
2019-03-16T12:07:30.175Z,73.80
2019-03-16T12:09:58.745Z,73.60
2019-03-16T12:12:27.122Z,73.60
2019-03-16T12:14:55.812Z,74.40
2019-03-16T12:17:24.054Z,74.50
2019-03-16T12:19:52.610Z,75.30
2019-03-16T12:22:20.867Z,75.60
2019-03-16T12:24:49.937Z,75.30
2019-03-16T12:27:18.977Z,75.50
2019-03-16T12:29:47.666Z,75.50
2019-03-16T12:32:16.038Z,74.50
2019-03-16T12:34:44.438Z,73.40
2019-03-16T12:37:12.728Z,73.40
2019-03-16T12:39:40.957Z,72.70
2019-03-16T12:42:09.818Z,73.10
2019-03-16T12:44:38.495Z,72.20
2019-03-16T12:47:06.950Z,72.10
2019-03-16T12:49:35.222Z,72.30
2019-03-16T12:52:03.661Z,72.00
2019-03-16T12:54:32.371Z,70.70
2019-03-16T12:57:00.718Z,70.60
2019-03-16T12:59:29.783Z,70.20
2019-03-16T13:01:58.365Z,70.10
2019-03-16T13:04:26.781Z,70.00
2019-03-16T13:06:55.128Z,70.60
2019-03-16T13:09:23.836Z,71.70
2019-03-16T13:11:52.510Z,72.90
2019-03-16T13:14:20.909Z,74.00
2019-03-16T13:16:49.491Z,73.90
2019-03-16T13:19:18.013Z,74.10
2019-03-16T13:21:46.750Z,73.20
2019-03-16T13:24:15.729Z,72.70
2019-03-16T13:26:44.062Z,71.40
2019-03-16T13:29:12.533Z,70.00
2019-03-16T13:31:41.743Z,69.90
2019-03-16T13:34:10.270Z,68.60
2019-03-16T13:36:39.104Z,67.70
2019-03-16T13:39:07.970Z,68.90
2019-03-16T13:41:36.850Z,69.70
2019-03-16T13:44:05.735Z,69.20
2019-03-16T13:46:34.495Z,71.00
2019-03-16T13:49:05.653Z,71.80
2019-03-16T13:51:34.312Z,72.30
2019-03-16T13:54:02.783Z,72.30
2019-03-16T13:56:31.372Z,72.30
2019-03-16T13:58:59.747Z,71.90
2019-03-16T14:01:28.180Z,72.00
2019-03-16T14:03:56.535Z,72.30
2019-03-16T14:06:25.267Z,72.40
2019-03-16T14:08:54.196Z,72.60
2019-03-16T14:11:22.655Z,73.30
2019-03-16T14:13:51.245Z,73.70
2019-03-16T14:16:20.064Z,73.30
2019-03-16T14:18:48.612Z,72.90
2019-03-16T14:21:17.032Z,73.20
2019-03-16T14:23:45.409Z,73.10
2019-03-16T14:26:14.058Z,73.80
2019-03-16T14:28:42.446Z,74.90
2019-03-16T14:31:11.158Z,78.60
2019-03-16T14:33:39.492Z,79.90
2019-03-16T14:36:08.173Z,81.60
2019-03-16T14:38:36.560Z,82.40
2019-03-16T14:41:05.369Z,82.40
2019-03-16T14:43:34.280Z,81.60
2019-03-16T14:46:02.656Z,79.50
2019-03-16T14:48:31.284Z,78.50
2019-03-16T14:50:59.518Z,78.40
2019-03-16T14:53:28.131Z,78.30
2019-03-16T14:55:56.789Z,78.60
2019-03-16T14:58:25.245Z,79.10
2019-03-16T15:00:53.900Z,78.40
2019-03-16T15:03:22.537Z,79.00
2019-03-16T15:05:51.296Z,78.30
2019-03-16T15:08:19.904Z,78.60
2019-03-16T15:10:48.278Z,78.40
2019-03-16T15:13:17.041Z,78.00
2019-03-16T15:15:45.510Z,77.70
2019-03-16T15:18:13.741Z,77.40
2019-03-16T15:20:42.799Z,77.10
2019-03-16T15:23:11.394Z,77.50
2019-03-16T15:25:40.063Z,78.70
2019-03-16T15:28:08.546Z,78.70
2019-03-16T15:30:49.739Z,83.80
2019-03-16T15:33:07.813Z,86.00
2019-03-16T15:35:36.080Z,87.20
2019-03-16T15:38:04.770Z,86.60
2019-03-16T15:40:33.422Z,86.80
2019-03-16T15:43:02.752Z,86.30
2019-03-16T15:45:31.117Z,85.60
2019-03-16T15:47:59.577Z,86.20
2019-03-16T15:50:27.842Z,86.10
2019-03-16T15:52:56.629Z,86.10
2019-03-16T15:55:25.212Z,86.00
2019-03-16T15:58:06.765Z,85.10
2019-03-16T16:00:23.817Z,85.20
2019-03-16T16:02:52.593Z,84.30
2019-03-16T16:05:21.278Z,83.60
2019-03-16T16:07:49.953Z,83.00
2019-03-16T16:10:18.593Z,82.60
2019-03-16T16:12:47.314Z,82.80
2019-03-16T16:15:16.255Z,83.10
2019-03-16T16:17:44.729Z,82.50
2019-03-16T16:20:13.062Z,82.80
2019-03-16T16:22:41.432Z,82.70
2019-03-16T16:25:10.523Z,82.20
2019-03-16T16:27:38.835Z,82.00
2019-03-16T16:30:09.444Z,81.30
2019-03-16T16:32:37.759Z,81.10
2019-03-16T16:35:06.698Z,80.90
2019-03-16T16:37:35.129Z,80.10
2019-03-16T16:40:04.029Z,79.40
2019-03-16T16:42:32.499Z,77.90
2019-03-16T16:45:03.289Z,77.10
2019-03-16T16:47:31.724Z,77.20
2019-03-16T16:50:00.046Z,76.80
2019-03-16T16:52:28.432Z,77.20
2019-03-16T16:54:56.795Z,78.20
2019-03-16T16:57:25.545Z,77.80
2019-03-16T16:59:53.866Z,78.00
2019-03-16T17:02:22.326Z,79.00
2019-03-16T17:04:51.401Z,78.20
2019-03-16T17:07:19.926Z,77.90
2019-03-16T17:09:48.217Z,78.00
2019-03-16T17:12:17.190Z,77.40
2019-03-16T17:14:45.709Z,78.30
2019-03-16T17:17:14.060Z,77.60
2019-03-16T17:19:42.453Z,77.60
2019-03-16T17:22:11.511Z,77.90
2019-03-16T17:24:39.814Z,77.60
2019-03-16T17:27:08.334Z,77.60
2019-03-16T17:29:37.225Z,77.60
2019-03-16T17:32:05.551Z,77.60
2019-03-16T17:34:34.280Z,77.30
2019-03-16T17:37:02.764Z,77.10
2019-03-16T17:39:31.045Z,77.70
2019-03-16T17:41:59.387Z,77.70
2019-03-16T17:44:27.818Z,77.50
2019-03-16T17:46:56.490Z,77.90
2019-03-16T17:49:24.931Z,77.40
2019-03-16T17:51:53.521Z,77.80
2019-03-16T17:54:21.972Z,77.10
2019-03-16T17:56:50.943Z,76.90
2019-03-16T17:59:19.457Z,76.90
2019-03-16T18:01:54.610Z,77.30
2019-03-16T18:04:18.579Z,77.70
2019-03-16T18:06:47.227Z,77.90
2019-03-16T18:09:15.954Z,77.90
2019-03-16T18:11:44.498Z,78.00
2019-03-16T18:14:13.006Z,77.80
2019-03-16T18:16:41.379Z,78.10
2019-03-16T18:19:10.506Z,78.00
2019-03-16T18:21:39.356Z,78.10
2019-03-16T18:24:07.863Z,78.10
2019-03-16T18:26:36.960Z,78.30
2019-03-16T18:29:05.399Z,78.20
2019-03-16T18:31:33.829Z,78.30
2019-03-16T18:34:02.127Z,77.90
2019-03-16T18:36:30.498Z,78.60
2019-03-16T18:38:58.914Z,78.30
2019-03-16T18:41:27.643Z,79.40
2019-03-16T18:43:56.021Z,78.50
2019-03-16T18:46:24.360Z,78.30
2019-03-16T18:48:52.758Z,78.30
2019-03-16T18:51:21.108Z,78.20
2019-03-16T18:53:49.606Z,78.30
2019-03-16T18:56:18.273Z,78.20
2019-03-16T18:58:47.303Z,78.50
2019-03-16T19:01:15.901Z,77.90
2019-03-16T19:03:44.379Z,78.20
2019-03-16T19:06:12.769Z,78.70
2019-03-16T19:08:41.056Z,77.90
2019-03-16T19:11:09.981Z,77.80
2019-03-16T19:13:38.397Z,77.70
2019-03-16T19:16:06.880Z,77.70
2019-03-16T19:18:35.515Z,77.70
2019-03-16T19:21:04.033Z,77.50
2019-03-16T19:23:32.580Z,77.60
2019-03-16T19:26:00.715Z,77.90
2019-03-16T19:28:28.952Z,77.20
2019-03-16T19:30:57.347Z,77.30
2019-03-16T19:33:26.046Z,77.70
2019-03-16T19:35:54.371Z,77.60
2019-03-16T19:38:22.767Z,77.30
2019-03-16T19:40:51.396Z,77.50
2019-03-16T19:43:20.429Z,77.20
2019-03-16T19:45:49.118Z,77.20
2019-03-16T19:48:17.452Z,77.40
2019-03-16T19:50:45.892Z,77.30
2019-03-16T19:53:14.283Z,77.10
2019-03-16T19:55:42.683Z,77.30
2019-03-16T19:58:11.035Z,77.40
2019-03-16T20:00:39.399Z,77.10
2019-03-16T20:03:07.832Z,77.40
2019-03-16T20:05:36.541Z,77.80
2019-03-16T20:08:05.477Z,77.80
2019-03-16T20:10:33.960Z,78.20
2019-03-16T20:13:05.166Z,78.70
2019-03-16T20:15:34.036Z,78.60
2019-03-16T20:18:02.352Z,78.80
2019-03-16T20:20:30.794Z,78.50
2019-03-16T20:22:59.459Z,79.00
2019-03-16T20:25:27.884Z,78.50
2019-03-16T20:27:56.491Z,78.70
2019-03-16T20:30:26.932Z,78.50
2019-03-16T20:33:03.881Z,78.40
2019-03-16T20:35:25.644Z,78.40
2019-03-16T20:37:54.272Z,78.40
2019-03-16T20:40:22.807Z,78.30
2019-03-16T20:42:51.128Z,78.50
2019-03-16T20:45:19.935Z,78.60
2019-03-16T20:47:48.795Z,78.80
2019-03-16T20:50:17.719Z,78.90
2019-03-16T20:52:46.422Z,79.00
2019-03-16T20:55:15.162Z,79.10
2019-03-16T20:57:43.444Z,78.90
2019-03-16T21:00:11.951Z,79.10
2019-03-16T21:02:40.502Z,79.30
2019-03-16T21:05:09.317Z,79.30
2019-03-16T21:07:37.953Z,79.30
2019-03-16T21:10:06.990Z,79.10
2019-03-16T21:12:35.665Z,79.00
2019-03-16T21:15:04.855Z,79.10
2019-03-16T21:17:33.303Z,79.30
2019-03-16T21:20:02.063Z,79.50
2019-03-16T21:22:35.493Z,79.50
2019-03-16T21:25:02.017Z,80.60
2019-03-16T21:27:30.532Z,80.10
2019-03-16T21:29:58.912Z,79.80
2019-03-16T21:32:27.190Z,80.10
2019-03-16T21:34:56.058Z,80.30
2019-03-16T21:37:24.340Z,80.60
2019-03-16T21:39:52.750Z,81.00
2019-03-16T21:42:21.116Z,81.00
2019-03-16T21:44:49.566Z,80.80
2019-03-16T21:47:18.162Z,80.80
2019-03-16T21:49:46.834Z,80.70
2019-03-16T21:52:15.312Z,80.80
2019-03-16T21:54:43.996Z,80.90
2019-03-16T21:57:12.338Z,81.60
2019-03-16T21:59:41.089Z,80.90
2019-03-16T22:02:09.530Z,80.80
2019-03-16T22:04:37.695Z,81.70
2019-03-16T22:07:06.202Z,80.90
2019-03-16T22:09:34.550Z,80.90
2019-03-16T22:12:03.338Z,80.60
2019-03-16T22:14:31.918Z,80.60
2019-03-16T22:17:02.014Z,80.60
2019-03-16T22:19:30.503Z,80.60
2019-03-16T22:21:59.144Z,80.70
2019-03-16T22:24:27.573Z,80.50
2019-03-16T22:26:55.997Z,80.40
2019-03-16T22:29:24.663Z,79.90
2019-03-16T22:31:53.366Z,79.80
2019-03-16T22:34:21.637Z,79.60
2019-03-16T22:36:50.098Z,79.70
2019-03-16T22:39:18.447Z,79.70
2019-03-16T22:41:46.860Z,79.80
2019-03-16T22:44:15.650Z,80.00
2019-03-16T22:46:43.973Z,80.00
2019-03-16T22:49:12.301Z,80.00
2019-03-16T22:51:40.712Z,80.20
2019-03-16T22:54:09.171Z,79.90
2019-03-16T22:56:37.443Z,80.10
2019-03-16T22:59:05.799Z,80.20
2019-03-16T23:01:34.904Z,80.30
2019-03-16T23:04:07.006Z,80.40
2019-03-16T23:06:34.103Z,80.70
2019-03-16T23:09:05.978Z,81.20
2019-03-16T23:11:34.827Z,81.20
2019-03-16T23:14:03.257Z,81.50
2019-03-16T23:16:31.873Z,81.80
2019-03-16T23:19:00.355Z,82.00
2019-03-16T23:21:28.550Z,82.30
2019-03-16T23:23:56.967Z,82.30
2019-03-16T23:26:25.409Z,82.40
2019-03-16T23:28:54.066Z,82.70
2019-03-16T23:31:22.457Z,83.20
2019-03-16T23:33:51.128Z,83.60
2019-03-16T23:36:19.818Z,83.90
2019-03-16T23:38:48.471Z,84.10
2019-03-16T23:41:17.644Z,84.00
2019-03-16T23:43:45.877Z,83.40
2019-03-16T23:46:14.552Z,83.40
2019-03-16T23:48:43.242Z,83.40
2019-03-16T23:51:11.631Z,83.50
2019-03-16T23:53:40.005Z,83.50
2019-03-16T23:56:08.420Z,84.10
2019-03-16T23:58:36.655Z,84.40
